Airfield :
LOGIN :

Register | Disclaimer

   EN    FR    IT 

 










Legend :    VFR   Marginal VFR   IFR   Intensive IFR   Very Intensive IFR
Visi :
Ceiling :
>= 8 km
>= 3000ft
5 to 8 km
1000 to 3000 ft
1500m to 5 km
500 to 1000 ft
800 to 1500m
200 to 500 ft
< 800m
< 200 ft
Symbols :   Thunderstorms  Fog  Heavy snow  Heavy precipitations  Wind > 20 kt
SIGMETs :     Misc.  Thunderstorms  Icing  Turbulence  Mountain Waves  Volcanic Ashes







- Airport Elevation : 587 ft
- IATA code : XCR
- Download approach charts


LFOK - Chalons Vatry

CURRENT METAR :
  • 251200Z AUTO 22013KT 9999 FEW015 BKN037 BKN045 14/10 Q1016 TEMPO 24015G25KT 4000 SHRA BKN015TCU

EXPIRED METARs :
  • 251130Z AUTO 23015KT 9999 SCT017 BKN027 BKN032 14/10 Q1016 TEMPO 3000 RA BKN013
  • 251100Z AUTO 23014KT 9999 BKN017 BKN023 BKN033 14/10 Q1016 TEMPO 3000 RA BKN013
  • 251030Z AUTO 22015KT 9999 SCT016 SCT026 BKN033 14/10 Q1016 TEMPO 3000 RA BKN013
  • 251000Z AUTO 22015KT 9999 BKN015 BKN021 BKN028 15/11 Q1016 TEMPO 3000 RA BKN013
  • 250930Z AUTO 22013KT 9999 BKN016 OVC058 14/11 Q1016 TEMPO 3000 RA BKN013

TAF TAF LFOK
Valid from the 25 at 12:00 until the 26 at 12:00 UTC


251100Z 2512/2612 24013KT 9999 BKN020
TEMPO 2512/2518 24015G25KT 4000 SHRA BKN015TCU
No reported NOTAMs for that airfield.



MET'MAP, your aeronautical weather chart ! - Copyright ORBIFLY December 2007 - Disclaimer

ORBIFLY MET'MAP TEAM :

Programming & Development : Alexandra Zaïnal
Concept & Development : Baudouin d'Aumeries
Co-Development & Prog : Marc-Olivier Méhu
Technical & hardware support : Manuel Goepfert

Contact : metmap@orbifly.com




SOURCES & CREDITS :

   NOAA